createdAt,value
2019-05-03T00:00:12.159Z,1007.70
2019-05-03T00:01:12.868Z,1007.71
2019-05-03T00:02:12.341Z,1007.70
2019-05-03T00:03:12.123Z,1007.72
2019-05-03T00:04:12.079Z,1007.70
2019-05-03T00:05:12.539Z,1007.71
2019-05-03T00:06:12.117Z,1007.69
2019-05-03T00:07:11.935Z,1007.71
2019-05-03T00:08:12.677Z,1007.72
2019-05-03T00:09:11.994Z,1007.72
2019-05-03T00:10:12.830Z,1007.75
2019-05-03T00:11:12.597Z,1007.74
2019-05-03T00:12:12.649Z,1007.68
2019-05-03T00:13:12.497Z,1007.71
2019-05-03T00:14:12.458Z,1007.70
2019-05-03T00:15:12.082Z,1007.70
2019-05-03T00:16:12.209Z,1007.71
2019-05-03T00:17:11.777Z,1007.72
2019-05-03T00:18:11.759Z,1007.75
2019-05-03T00:19:12.729Z,1007.75
2019-05-03T00:20:11.634Z,1007.76
2019-05-03T00:21:11.664Z,1007.78
2019-05-03T00:22:12.400Z,1007.76
2019-05-03T00:23:12.100Z,1007.75
2019-05-03T00:24:11.868Z,1007.82
2019-05-03T00:25:12.825Z,1007.74
2019-05-03T00:26:12.014Z,1007.73
2019-05-03T00:27:12.580Z,1007.73
2019-05-03T00:28:10.858Z,1007.71
2019-05-03T00:29:12.648Z,1007.68
2019-05-03T00:30:12.013Z,1007.70
2019-05-03T00:31:12.474Z,1007.72
2019-05-03T00:32:12.511Z,1007.70
2019-05-03T00:33:11.779Z,1007.72
2019-05-03T00:34:12.457Z,1007.73
2019-05-03T00:35:12.032Z,1007.72
2019-05-03T00:36:11.692Z,1007.69
2019-05-03T00:37:10.442Z,1007.71
2019-05-03T00:38:12.245Z,1007.75
2019-05-03T00:39:12.150Z,1007.73
2019-05-03T00:40:12.162Z,1007.70
2019-05-03T00:41:12.067Z,1007.70
2019-05-03T00:42:11.953Z,1007.71
2019-05-03T00:43:11.572Z,1007.68
2019-05-03T00:44:11.540Z,1007.66
2019-05-03T00:45:10.068Z,1007.66
2019-05-03T00:46:10.023Z,1007.67
2019-05-03T00:47:09.978Z,1007.68
2019-05-03T00:48:09.930Z,1007.55
2019-05-03T00:49:11.900Z,1007.68
2019-05-03T00:50:11.913Z,1007.63
2019-05-03T00:51:11.691Z,1007.65
2019-05-03T00:52:11.650Z,1007.69
2019-05-03T00:53:11.597Z,1007.64
2019-05-03T00:54:09.655Z,1007.67
2019-05-03T00:55:16.040Z,1007.66
2019-05-03T00:56:52.321Z,1007.69
2019-05-03T00:57:52.258Z,1007.74
2019-05-03T00:58:52.997Z,1007.73
2019-05-03T00:59:52.790Z,1007.72
2019-05-03T01:00:52.492Z,1007.74
2019-05-03T01:01:52.223Z,1007.72
2019-05-03T01:02:51.869Z,1007.72
2019-05-03T01:03:52.706Z,1007.73
2019-05-03T01:04:51.916Z,1007.75
2019-05-03T01:05:52.928Z,1007.76
2019-05-03T01:06:52.694Z,1007.75
2019-05-03T01:07:52.606Z,1007.73
2019-05-03T01:08:52.306Z,1007.66
2019-05-03T01:09:51.805Z,1007.61
2019-05-03T01:10:51.676Z,1007.68
2019-05-03T01:11:52.479Z,1007.70
2019-05-03T01:12:52.356Z,1007.68
2019-05-03T01:13:52.147Z,1007.68
2019-05-03T01:14:51.568Z,1007.70
2019-05-03T01:15:51.974Z,1007.72
2019-05-03T01:16:52.211Z,1007.69
2019-05-03T01:17:52.523Z,1007.69
2019-05-03T01:18:52.339Z,1007.66
2019-05-03T01:19:52.149Z,1007.69
2019-05-03T01:20:51.884Z,1007.65
2019-05-03T01:21:51.535Z,1007.66
2019-05-03T01:22:51.876Z,1007.67
2019-05-03T01:23:52.528Z,1007.64
2019-05-03T01:24:51.869Z,1007.68
2019-05-03T01:25:51.677Z,1007.69
2019-05-03T01:26:52.454Z,1007.67
2019-05-03T01:27:52.152Z,1007.71
2019-05-03T01:28:52.165Z,1007.70
2019-05-03T01:29:51.936Z,1007.69
2019-05-03T01:30:51.902Z,1007.70
2019-05-03T01:31:50.307Z,1007.72
2019-05-03T01:32:52.226Z,1007.70
2019-05-03T01:33:51.685Z,1007.73
2019-05-03T01:34:52.148Z,1007.72
2019-05-03T01:35:51.788Z,1007.73
2019-05-03T01:36:51.837Z,1007.74
2019-05-03T01:37:51.789Z,1007.71
2019-05-03T01:38:49.987Z,1007.74
2019-05-03T01:39:49.937Z,1007.74
2019-05-03T01:40:49.889Z,1007.74
2019-05-03T01:41:51.775Z,1007.78
2019-05-03T01:42:51.752Z,1007.78
2019-05-03T01:43:49.750Z,1007.79
2019-05-03T01:44:49.702Z,1007.80
2019-05-03T01:45:51.759Z,1007.81
2019-05-03T01:46:51.551Z,1007.84
2019-05-03T01:47:49.563Z,1007.84
2019-05-03T01:48:49.516Z,1007.84
2019-05-03T01:49:49.471Z,1007.83
2019-05-03T01:50:49.424Z,1007.85
2019-05-03T01:51:49.378Z,1007.85
2019-05-03T01:52:49.333Z,1007.85
2019-05-03T01:53:49.284Z,1007.88
2019-05-03T01:54:49.246Z,1007.82
2019-05-03T01:55:49.197Z,1007.86
2019-05-03T01:56:56.818Z,1007.82
2019-05-03T01:57:49.098Z,1007.83
2019-05-03T01:58:49.055Z,1007.82
2019-05-03T01:59:49.008Z,1007.85
2019-05-03T02:00:48.968Z,1007.86
2019-05-03T02:01:48.916Z,1007.90
2019-05-03T02:02:48.867Z,1007.90
2019-05-03T02:03:48.823Z,1007.87
2019-05-03T02:04:48.775Z,1007.86
2019-05-03T02:05:48.728Z,1007.87
2019-05-03T02:06:48.682Z,1007.86
2019-05-03T02:07:48.801Z,1007.87
2019-05-03T02:08:48.589Z,1007.91
2019-05-03T02:09:48.542Z,1007.85
2019-05-03T02:10:48.499Z,1007.85
2019-05-03T02:11:48.449Z,1007.86
2019-05-03T02:13:48.357Z,1007.90
2019-05-03T02:14:48.311Z,1007.83
2019-05-03T02:15:48.263Z,1007.85
2019-05-03T02:16:48.216Z,1007.88
2019-05-03T02:17:48.171Z,1007.87
2019-05-03T02:18:48.124Z,1007.88
2019-05-03T02:19:48.082Z,1007.86
2019-05-03T02:20:48.032Z,1007.94
2019-05-03T02:21:47.984Z,1007.93
2019-05-03T02:22:47.941Z,1007.92
2019-05-03T02:23:47.893Z,1007.94
2019-05-03T02:24:47.845Z,1007.96
2019-05-03T02:25:55.944Z,1007.98
2019-05-03T02:26:47.752Z,1007.98
2019-05-03T02:27:47.706Z,1008.01
2019-05-03T02:28:47.659Z,1008.01
2019-05-03T02:29:47.612Z,1008.05
2019-05-03T02:30:47.575Z,1008.02
2019-05-03T02:31:47.523Z,1008.01
2019-05-03T02:32:47.477Z,1008.09
2019-05-03T02:33:47.432Z,1008.04
2019-05-03T02:34:47.386Z,1008.04
2019-05-03T02:35:47.336Z,1008.07
2019-05-03T02:36:47.293Z,1008.10
2019-05-03T02:37:47.243Z,1008.11
2019-05-03T02:38:47.197Z,1008.09
2019-05-03T02:39:47.150Z,1008.11
2019-05-03T02:40:47.103Z,1008.09
2019-05-03T02:41:49.565Z,1008.11
2019-05-03T02:42:47.009Z,1008.15
2019-05-03T02:43:46.962Z,1008.13
2019-05-03T02:44:46.917Z,1008.18
2019-05-03T02:45:46.871Z,1008.18
2019-05-03T02:46:46.825Z,1008.16
2019-05-03T02:47:47.229Z,1008.18
2019-05-03T02:48:46.743Z,1008.19
2019-05-03T02:49:46.683Z,1008.17
2019-05-03T02:50:46.636Z,1008.16
2019-05-03T02:51:46.594Z,1008.10
2019-05-03T02:52:46.545Z,1008.17
2019-05-03T02:53:46.501Z,1008.18
2019-05-03T02:54:46.625Z,1008.18
2019-05-03T02:55:46.406Z,1008.20
2019-05-03T02:56:46.368Z,1008.17
2019-05-03T02:57:46.918Z,1008.21
2019-05-03T02:58:46.265Z,1008.22
2019-05-03T02:59:49.739Z,1008.20
2019-05-03T03:00:46.172Z,1008.20
2019-05-03T03:01:46.565Z,1008.20
2019-05-03T03:02:46.083Z,1008.21
2019-05-03T03:03:46.033Z,1008.26
2019-05-03T03:04:45.987Z,1008.22
2019-05-03T03:05:46.391Z,1008.20
2019-05-03T03:06:45.900Z,1008.20
2019-05-03T03:07:46.199Z,1008.18
2019-05-03T03:08:45.799Z,1008.20
2019-05-03T03:09:45.761Z,1008.21
2019-05-03T03:10:45.761Z,1008.24
2019-05-03T03:11:45.984Z,1008.22
2019-05-03T03:12:46.417Z,1008.23
2019-05-03T03:13:45.836Z,1008.25
2019-05-03T03:14:45.618Z,1008.25
2019-05-03T03:15:45.878Z,1008.22
2019-05-03T03:16:45.753Z,1008.28
2019-05-03T03:17:45.817Z,1008.25
2019-05-03T03:18:45.734Z,1008.28
2019-05-03T03:19:46.171Z,1008.30
2019-05-03T03:20:45.241Z,1008.27
2019-05-03T03:21:46.632Z,1008.30
2019-05-03T03:22:45.804Z,1008.29
2019-05-03T03:23:46.040Z,1008.32
2019-05-03T03:24:45.766Z,1008.32
2019-05-03T03:25:46.265Z,1008.37
2019-05-03T03:26:47.307Z,1008.34
2019-05-03T03:27:45.266Z,1008.38
2019-05-03T03:28:46.262Z,1008.39
2019-05-03T03:29:45.902Z,1008.43
2019-05-03T03:30:48.622Z,1008.44
2019-05-03T03:31:48.192Z,1008.45
2019-05-03T03:32:48.164Z,1008.44
2019-05-03T03:33:47.398Z,1008.41
2019-05-03T03:34:54.627Z,1008.45
2019-05-03T03:35:48.827Z,1008.42
2019-05-03T03:36:58.398Z,1008.47
2019-05-03T03:37:46.191Z,1008.43
2019-05-03T03:38:45.906Z,1008.47
2019-05-03T03:39:45.757Z,1008.47
2019-05-03T03:40:45.346Z,1008.42
2019-05-03T03:41:45.329Z,1008.42
2019-05-03T03:42:44.975Z,1008.45
2019-05-03T03:43:46.311Z,1008.45
2019-05-03T03:44:45.364Z,1008.48
2019-05-03T03:45:45.482Z,1008.47
2019-05-03T03:46:45.437Z,1008.48
2019-05-03T03:47:46.444Z,1008.45
2019-05-03T03:48:46.056Z,1008.47
2019-05-03T03:49:46.365Z,1008.46
2019-05-03T03:50:45.689Z,1008.47
2019-05-03T03:51:45.560Z,1008.51
2019-05-03T03:52:45.235Z,1008.49
2019-05-03T03:53:46.436Z,1008.54
2019-05-03T03:54:45.742Z,1008.53
2019-05-03T03:55:45.813Z,1008.55
2019-05-03T03:56:56.011Z,1008.54
2019-05-03T03:57:46.524Z,1008.60
2019-05-03T03:58:46.165Z,1008.61
2019-05-03T03:59:45.440Z,1008.63
2019-05-03T04:00:46.167Z,1008.61
2019-05-03T04:01:45.484Z,1008.64
2019-05-03T04:02:45.721Z,1008.68
2019-05-03T04:03:45.743Z,1008.68
2019-05-03T04:04:45.034Z,1008.64
2019-05-03T04:05:43.144Z,1008.70
2019-05-03T04:06:43.101Z,1008.68
2019-05-03T04:07:43.052Z,1008.75
2019-05-03T04:08:45.143Z,1008.74
2019-05-03T04:09:45.402Z,1008.78
2019-05-03T04:10:42.908Z,1008.80
2019-05-03T04:11:42.861Z,1008.81
2019-05-03T04:12:45.273Z,1008.82
2019-05-03T04:13:45.052Z,1008.85
2019-05-03T04:14:45.140Z,1008.82
2019-05-03T04:15:45.103Z,1008.85
2019-05-03T04:16:45.290Z,1008.87
2019-05-03T04:17:45.446Z,1008.83
2019-05-03T04:18:42.533Z,1008.87
2019-05-03T04:19:45.243Z,1008.86
2019-05-03T04:20:42.441Z,1008.88
2019-05-03T04:21:42.390Z,1008.91
2019-05-03T04:22:45.128Z,1008.91
2019-05-03T04:23:42.300Z,1008.91
2019-05-03T04:24:42.250Z,1008.94
2019-05-03T04:25:44.974Z,1008.94
2019-05-03T04:26:42.157Z,1008.91
2019-05-03T04:27:42.113Z,1008.97
2019-05-03T04:28:42.063Z,1008.91
2019-05-03T04:29:42.014Z,1008.90
2019-05-03T04:30:41.973Z,1008.98
2019-05-03T04:31:41.923Z,1008.92
2019-05-03T04:32:41.885Z,1008.90
2019-05-03T04:33:41.834Z,1008.95
2019-05-03T04:34:41.786Z,1009.00
2019-05-03T04:35:41.739Z,1008.99
2019-05-03T04:36:41.688Z,1008.99
2019-05-03T04:37:41.640Z,1009.01
2019-05-03T04:38:41.596Z,1009.04
2019-05-03T04:39:41.550Z,1009.05
2019-05-03T04:40:41.531Z,1009.05
2019-05-03T04:41:41.465Z,1009.09
2019-05-03T04:42:41.407Z,1009.05
2019-05-03T04:43:41.359Z,1009.10
2019-05-03T04:44:41.319Z,1009.09
2019-05-03T04:45:41.266Z,1009.11
2019-05-03T04:46:41.225Z,1009.14
2019-05-03T04:47:41.173Z,1009.15
2019-05-03T04:48:41.134Z,1009.17
2019-05-03T04:49:41.084Z,1009.18
2019-05-03T04:50:41.032Z,1009.19
2019-05-03T04:51:41.002Z,1009.18
2019-05-03T04:52:41.147Z,1009.21
2019-05-03T04:53:40.890Z,1009.21
2019-05-03T04:54:40.842Z,1009.19
2019-05-03T04:55:40.797Z,1009.24
2019-05-03T04:56:40.757Z,1009.25
2019-05-03T04:57:45.714Z,1009.21
2019-05-03T04:58:40.663Z,1009.25
2019-05-03T04:59:40.610Z,1009.27
2019-05-03T05:00:40.562Z,1009.25
2019-05-03T05:01:40.520Z,1009.30
2019-05-03T05:02:40.480Z,1009.30
2019-05-03T05:03:40.421Z,1009.35
2019-05-03T05:04:40.373Z,1009.31
2019-05-03T05:05:40.329Z,1009.37
2019-05-03T05:06:40.281Z,1009.42
2019-05-03T05:07:40.239Z,1009.45
2019-05-03T05:08:40.193Z,1009.41
2019-05-03T05:09:40.140Z,1009.41
2019-05-03T05:10:40.095Z,1009.44
2019-05-03T05:11:40.047Z,1009.42
2019-05-03T05:12:40.002Z,1009.48
2019-05-03T05:13:39.951Z,1009.45
2019-05-03T05:14:39.910Z,1009.46
2019-05-03T05:15:39.861Z,1009.48
2019-05-03T05:16:39.958Z,1009.44
2019-05-03T05:17:39.775Z,1009.49
2019-05-03T05:18:39.724Z,1009.51
2019-05-03T05:19:39.684Z,1009.48
2019-05-03T05:20:39.627Z,1009.52
2019-05-03T05:21:39.575Z,1009.49
2019-05-03T05:22:39.534Z,1009.43
2019-05-03T05:23:39.484Z,1009.44
2019-05-03T05:24:39.454Z,1009.50
2019-05-03T05:25:39.393Z,1009.57
2019-05-03T05:26:39.343Z,1009.56
2019-05-03T05:27:48.843Z,1009.58
2019-05-03T05:28:39.255Z,1009.56
2019-05-03T05:29:39.209Z,1009.59
2019-05-03T05:30:39.158Z,1009.65
2019-05-03T05:31:39.109Z,1009.62
2019-05-03T05:32:39.076Z,1009.64
2019-05-03T05:33:39.027Z,1009.64
2019-05-03T05:34:38.981Z,1009.65
2019-05-03T05:35:38.981Z,1009.68
2019-05-03T05:36:38.885Z,1009.69
2019-05-03T05:37:38.828Z,1009.70
2019-05-03T05:38:38.783Z,1009.71
2019-05-03T05:39:38.734Z,1009.69
2019-05-03T05:40:38.686Z,1009.70
2019-05-03T05:41:38.641Z,1009.71
2019-05-03T05:42:38.598Z,1009.70
2019-05-03T05:43:38.546Z,1009.71
2019-05-03T05:44:38.502Z,1009.72
2019-05-03T05:45:39.551Z,1009.70
2019-05-03T05:46:38.405Z,1009.70
2019-05-03T05:47:38.358Z,1009.74
2019-05-03T05:48:38.311Z,1009.73
2019-05-03T05:49:38.269Z,1009.71
2019-05-03T05:50:38.231Z,1009.75
2019-05-03T05:51:38.175Z,1009.74
2019-05-03T05:52:38.125Z,1009.74
2019-05-03T05:53:38.082Z,1009.71
2019-05-03T05:54:38.034Z,1009.80
2019-05-03T05:55:37.989Z,1009.71
2019-05-03T05:56:37.940Z,1009.75
2019-05-03T05:57:37.895Z,1009.76
2019-05-03T05:58:37.867Z,1009.76
2019-05-03T05:59:37.798Z,1009.81
2019-05-03T06:00:37.757Z,1009.86
2019-05-03T06:01:37.714Z,1009.82
2019-05-03T06:02:37.661Z,1009.88
2019-05-03T06:03:37.612Z,1009.86
2019-05-03T06:04:37.568Z,1009.92
2019-05-03T06:05:37.523Z,1009.88
2019-05-03T06:06:37.473Z,1009.89
2019-05-03T06:07:37.425Z,1009.90
2019-05-03T06:08:37.381Z,1009.92
2019-05-03T06:09:37.332Z,1009.95
2019-05-03T06:10:37.287Z,1009.89
2019-05-03T06:11:37.242Z,1009.91
2019-05-03T06:12:37.194Z,1009.91
2019-05-03T06:13:37.145Z,1009.93
2019-05-03T06:14:37.098Z,1009.92
2019-05-03T06:15:37.056Z,1009.93
2019-05-03T06:16:37.020Z,1009.91
2019-05-03T06:17:36.962Z,1009.88
2019-05-03T06:18:36.915Z,1009.90
2019-05-03T06:19:36.869Z,1009.87
2019-05-03T06:20:36.831Z,1009.87
2019-05-03T06:21:36.773Z,1009.87
2019-05-03T06:22:36.729Z,1009.85
2019-05-03T06:23:36.687Z,1009.89
2019-05-03T06:24:36.634Z,1009.89
2019-05-03T06:25:36.590Z,1009.89
2019-05-03T06:26:36.547Z,1009.90
2019-05-03T06:27:36.501Z,1009.91
2019-05-03T06:28:36.650Z,1009.94
2019-05-03T06:29:36.424Z,1009.96
2019-05-03T06:30:36.366Z,1010.00
2019-05-03T06:31:36.320Z,1010.01
2019-05-03T06:32:36.262Z,1009.98
2019-05-03T06:33:36.216Z,1009.98
2019-05-03T06:34:36.174Z,1009.99
2019-05-03T06:35:36.135Z,1010.05
2019-05-03T06:36:36.080Z,1010.02
2019-05-03T06:37:36.034Z,1010.03
2019-05-03T06:38:35.986Z,1010.02
2019-05-03T06:39:35.951Z,1010.03
2019-05-03T06:40:35.895Z,1010.06
2019-05-03T06:41:35.848Z,1010.02
2019-05-03T06:42:35.812Z,1010.03
2019-05-03T06:43:39.470Z,1010.02
2019-05-03T06:44:35.708Z,1010.04
2019-05-03T06:45:35.662Z,1010.02
2019-05-03T06:46:39.818Z,1010.03
2019-05-03T06:47:35.568Z,1009.99
2019-05-03T06:48:35.525Z,1009.98
2019-05-03T06:49:39.260Z,1010.00
2019-05-03T06:50:35.430Z,1009.96
2019-05-03T06:52:35.350Z,1010.00
2019-05-03T06:53:35.295Z,1009.99
2019-05-03T06:54:37.614Z,1010.01
2019-05-03T06:55:35.224Z,1010.02
2019-05-03T06:56:35.156Z,1010.04
2019-05-03T06:57:35.437Z,1010.03
2019-05-03T06:58:36.473Z,1010.05
2019-05-03T06:59:35.884Z,1010.06
2019-05-03T07:00:35.202Z,1010.05
2019-05-03T07:01:34.923Z,1010.11
2019-05-03T07:02:35.540Z,1010.10
2019-05-03T07:03:35.451Z,1010.09
2019-05-03T07:04:34.850Z,1010.10
2019-05-03T07:05:35.471Z,1010.09
2019-05-03T07:06:40.457Z,1010.04
2019-05-03T07:07:35.436Z,1010.07
2019-05-03T07:08:34.601Z,1010.08
2019-05-03T07:09:35.416Z,1010.05
2019-05-03T07:10:35.327Z,1010.08
2019-05-03T07:11:34.903Z,1010.07
2019-05-03T07:12:35.390Z,1010.07
2019-05-03T07:13:34.617Z,1010.07
2019-05-03T07:14:34.903Z,1010.07
2019-05-03T07:15:35.130Z,1010.09
2019-05-03T07:16:35.298Z,1010.11
2019-05-03T07:17:35.001Z,1010.11
2019-05-03T07:18:35.220Z,1010.07
2019-05-03T07:19:35.390Z,1010.10
2019-05-03T07:20:35.319Z,1010.08
2019-05-03T07:21:35.397Z,1010.11
2019-05-03T07:22:35.209Z,1010.12
2019-05-03T07:23:34.989Z,1010.14
2019-05-03T07:24:37.628Z,1010.17
2019-05-03T07:25:34.439Z,1010.14
2019-05-03T07:26:34.429Z,1010.19
2019-05-03T07:27:34.962Z,1010.16
2019-05-03T07:28:44.409Z,1010.13
2019-05-03T07:29:33.635Z,1010.13
2019-05-03T07:30:35.228Z,1010.09
2019-05-03T07:31:35.397Z,1010.09
2019-05-03T07:32:34.798Z,1010.07
2019-05-03T07:33:34.675Z,1010.12
2019-05-03T07:34:35.084Z,1010.08
2019-05-03T07:35:35.239Z,1010.08
2019-05-03T07:36:35.478Z,1010.08
2019-05-03T07:37:34.849Z,1010.04
2019-05-03T07:38:35.041Z,1009.98
2019-05-03T07:39:34.944Z,1010.02
2019-05-03T07:40:35.217Z,1009.97
2019-05-03T07:41:33.087Z,1009.96
2019-05-03T07:42:34.701Z,1009.99
2019-05-03T07:43:32.999Z,1009.98
2019-05-03T07:44:34.832Z,1009.97
2019-05-03T07:45:32.902Z,1009.99
2019-05-03T07:46:34.748Z,1009.97
2019-05-03T07:47:34.839Z,1009.96
2019-05-03T07:48:32.768Z,1009.97
2019-05-03T07:49:32.721Z,1009.95
2019-05-03T07:50:33.275Z,1009.95
2019-05-03T07:51:34.652Z,1009.97
2019-05-03T07:52:34.745Z,1009.98
2019-05-03T07:53:34.736Z,1009.99
2019-05-03T07:54:34.702Z,1009.98
2019-05-03T07:55:32.446Z,1009.99
2019-05-03T07:56:32.400Z,1010.01
2019-05-03T07:57:32.351Z,1009.99
2019-05-03T07:58:32.313Z,1010.07
2019-05-03T07:59:32.262Z,1010.08
2019-05-03T08:00:34.269Z,1010.09
2019-05-03T08:01:32.177Z,1010.12
2019-05-03T08:02:32.130Z,1010.10
2019-05-03T08:03:32.087Z,1010.10
2019-05-03T08:04:32.034Z,1010.10
2019-05-03T08:05:31.989Z,1010.10
2019-05-03T08:06:31.948Z,1010.14
2019-05-03T08:07:31.896Z,1010.12
2019-05-03T08:08:31.859Z,1010.13
2019-05-03T08:09:31.805Z,1010.08
2019-05-03T08:10:31.782Z,1010.11
2019-05-03T08:11:31.712Z,1010.10
2019-05-03T08:12:31.667Z,1010.09
2019-05-03T08:13:31.618Z,1010.04
2019-05-03T08:14:31.576Z,1010.10
2019-05-03T08:15:31.528Z,1010.03
2019-05-03T08:16:31.484Z,1010.06
2019-05-03T08:17:31.443Z,1010.04
2019-05-03T08:18:31.393Z,1010.09
2019-05-03T08:19:31.344Z,1010.05
2019-05-03T08:20:31.311Z,1010.05
2019-05-03T08:21:31.256Z,1010.07
2019-05-03T08:22:31.218Z,1010.09
2019-05-03T08:23:31.163Z,1010.11
2019-05-03T08:24:31.116Z,1010.14
2019-05-03T08:25:31.075Z,1010.12
2019-05-03T08:26:31.025Z,1010.10
2019-05-03T08:27:30.979Z,1010.13
2019-05-03T08:28:30.942Z,1010.08
2019-05-03T08:29:30.887Z,1010.09
2019-05-03T08:30:30.848Z,1010.11
2019-05-03T08:31:30.803Z,1010.10
2019-05-03T08:32:30.752Z,1010.07
2019-05-03T08:33:30.710Z,1010.10
2019-05-03T08:34:30.668Z,1010.07
2019-05-03T08:35:30.615Z,1010.05
2019-05-03T08:36:30.572Z,1010.10
2019-05-03T08:37:30.531Z,1010.08
2019-05-03T08:38:30.482Z,1010.03
2019-05-03T08:39:30.456Z,1010.07
2019-05-03T08:40:30.390Z,1010.05
2019-05-03T08:41:30.341Z,1010.10
2019-05-03T08:42:30.296Z,1010.09
2019-05-03T08:43:30.253Z,1010.07
2019-05-03T08:44:30.207Z,1010.12
2019-05-03T08:45:30.168Z,1010.13
2019-05-03T08:46:30.124Z,1010.15
2019-05-03T08:47:30.072Z,1010.10
2019-05-03T08:48:30.025Z,1010.12
2019-05-03T08:49:29.985Z,1010.14
2019-05-03T08:50:29.935Z,1010.10
2019-05-03T08:51:29.890Z,1010.08
2019-05-03T08:52:29.845Z,1010.03
2019-05-03T08:53:29.821Z,1010.03
2019-05-03T08:54:29.757Z,1010.05
2019-05-03T08:55:31.336Z,1010.05
2019-05-03T08:56:29.663Z,1010.03
2019-05-03T08:57:29.619Z,1010.10
2019-05-03T08:58:29.576Z,1010.07
2019-05-03T08:59:32.548Z,1010.08
2019-05-03T09:00:29.486Z,1010.10
2019-05-03T09:01:29.438Z,1010.09
2019-05-03T09:02:29.395Z,1010.09
2019-05-03T09:03:29.347Z,1010.13
2019-05-03T09:05:18.143Z,1010.14
2019-05-03T09:05:29.261Z,1010.12
2019-05-03T09:06:29.214Z,1010.11
2019-05-03T09:07:29.174Z,1010.11
2019-05-03T09:08:29.130Z,1010.10
2019-05-03T09:09:29.087Z,1010.09
2019-05-03T09:10:29.048Z,1010.11
2019-05-03T09:11:34.101Z,1010.14
2019-05-03T09:12:28.943Z,1010.14
2019-05-03T09:13:28.898Z,1010.13
2019-05-03T09:14:41.514Z,1010.11
2019-05-03T09:15:28.808Z,1010.11
2019-05-03T09:16:28.763Z,1010.08
2019-05-03T09:17:28.723Z,1010.08
2019-05-03T09:18:28.679Z,1010.07
2019-05-03T09:19:28.631Z,1010.10
2019-05-03T09:20:28.586Z,1010.11
2019-05-03T09:21:28.538Z,1010.09
2019-05-03T09:22:28.500Z,1010.07
2019-05-03T09:23:28.453Z,1010.02
2019-05-03T09:24:28.404Z,1009.99
2019-05-03T09:25:28.359Z,1010.00
2019-05-03T09:26:29.525Z,1009.99
2019-05-03T09:27:28.269Z,1010.05
2019-05-03T09:28:29.279Z,1010.03
2019-05-03T09:29:40.278Z,1010.04
2019-05-03T09:30:28.135Z,1010.05
2019-05-03T09:31:28.092Z,1009.97
2019-05-03T09:32:28.050Z,1009.98
2019-05-03T09:33:28.006Z,1010.03
2019-05-03T09:34:27.985Z,1010.03
2019-05-03T09:35:32.913Z,1010.02
2019-05-03T09:36:27.865Z,1010.00
2019-05-03T09:37:27.820Z,1009.95
2019-05-03T09:38:27.777Z,1009.92
2019-05-03T09:39:27.732Z,1009.91
2019-05-03T09:40:27.689Z,1009.91
2019-05-03T09:41:27.645Z,1009.90
2019-05-03T09:42:27.603Z,1009.90
2019-05-03T09:43:27.554Z,1009.86
2019-05-03T09:44:27.509Z,1009.86
2019-05-03T09:45:27.467Z,1009.91
2019-05-03T09:46:27.417Z,1009.83
2019-05-03T09:47:27.377Z,1009.88
2019-05-03T09:48:27.332Z,1009.86
2019-05-03T09:49:27.290Z,1009.83
2019-05-03T09:50:27.246Z,1009.84
2019-05-03T09:51:27.199Z,1009.87
2019-05-03T09:52:27.195Z,1009.92
2019-05-03T09:53:27.107Z,1009.85
2019-05-03T09:54:27.064Z,1009.87
2019-05-03T09:55:27.020Z,1009.85
2019-05-03T09:56:26.974Z,1009.83
2019-05-03T09:57:26.931Z,1009.87
2019-05-03T09:58:26.883Z,1009.83
2019-05-03T09:59:26.842Z,1009.87
2019-05-03T10:00:26.795Z,1009.83
2019-05-03T10:01:26.753Z,1009.86
2019-05-03T10:02:26.707Z,1009.81
2019-05-03T10:03:26.664Z,1009.79
2019-05-03T10:04:26.628Z,1009.82
2019-05-03T10:05:26.574Z,1009.83
2019-05-03T10:06:26.530Z,1009.83
2019-05-03T10:07:26.492Z,1009.81
2019-05-03T10:08:26.441Z,1009.80
2019-05-03T10:09:26.459Z,1009.80
2019-05-03T10:10:26.356Z,1009.83
2019-05-03T10:11:26.317Z,1009.81
2019-05-03T10:12:26.267Z,1009.83
2019-05-03T10:13:27.231Z,1009.83
2019-05-03T10:14:26.175Z,1009.85
2019-05-03T10:15:26.136Z,1009.82
2019-05-03T10:16:26.088Z,1009.83
2019-05-03T10:17:26.048Z,1009.80
2019-05-03T10:18:26.006Z,1009.83
2019-05-03T10:19:36.698Z,1009.83
2019-05-03T10:20:25.915Z,1009.85
2019-05-03T10:21:25.893Z,1009.87
2019-05-03T10:22:25.821Z,1009.80
2019-05-03T10:23:25.783Z,1009.78
2019-05-03T10:24:25.736Z,1009.66
2019-05-03T10:25:25.689Z,1009.81
2019-05-03T10:26:25.654Z,1009.78
2019-05-03T10:27:25.736Z,1009.72
2019-05-03T10:28:25.555Z,1009.79
2019-05-03T10:29:25.513Z,1009.69
2019-05-03T10:30:25.471Z,1009.72
2019-05-03T10:31:25.425Z,1009.70
2019-05-03T10:32:25.444Z,1009.70
2019-05-03T10:33:25.983Z,1009.78
2019-05-03T10:34:25.296Z,1009.73
2019-05-03T10:35:25.253Z,1009.70
2019-05-03T10:36:25.209Z,1009.69
2019-05-03T10:37:25.167Z,1009.63
2019-05-03T10:38:25.118Z,1009.80
2019-05-03T10:39:26.236Z,1009.80
2019-05-03T10:40:25.035Z,1009.81
2019-05-03T10:41:25.208Z,1009.82
2019-05-03T10:42:24.942Z,1009.80
2019-05-03T10:43:24.935Z,1009.82
2019-05-03T10:44:24.854Z,1009.78
2019-05-03T10:45:27.835Z,1009.75
2019-05-03T10:46:25.107Z,1009.82
2019-05-03T10:47:25.450Z,1009.79
2019-05-03T10:48:25.006Z,1009.76
2019-05-03T10:49:24.712Z,1009.74
2019-05-03T10:50:25.282Z,1009.69
2019-05-03T10:51:24.828Z,1009.75
2019-05-03T10:52:25.808Z,1009.73
2019-05-03T10:53:24.468Z,1009.75
2019-05-03T10:54:24.419Z,1009.81
2019-05-03T10:55:25.069Z,1009.78
2019-05-03T10:56:26.734Z,1009.82
2019-05-03T10:57:24.809Z,1009.68
2019-05-03T10:58:25.018Z,1009.75
2019-05-03T10:59:24.826Z,1009.77
2019-05-03T11:01:24.990Z,1009.74
2019-05-03T11:02:25.309Z,1009.76
2019-05-03T11:03:24.019Z,1009.79
2019-05-03T11:04:23.982Z,1009.75
2019-05-03T11:05:23.940Z,1009.73
2019-05-03T11:06:25.508Z,1009.75
2019-05-03T11:07:25.668Z,1009.68
2019-05-03T11:09:25.845Z,1009.73
2019-05-03T11:10:25.296Z,1009.71
2019-05-03T11:11:25.743Z,1009.76
2019-05-03T11:12:25.402Z,1009.77
2019-05-03T11:13:26.290Z,1009.85
2019-05-03T11:14:25.445Z,1009.84
2019-05-03T11:15:25.673Z,1009.76
2019-05-03T11:16:25.381Z,1009.75
2019-05-03T11:17:25.487Z,1009.74
2019-05-03T11:18:25.177Z,1009.76
2019-05-03T11:19:25.182Z,1009.75
2019-05-03T11:20:29.095Z,1009.71
2019-05-03T11:22:25.069Z,1009.67
2019-05-03T11:23:25.069Z,1009.68
2019-05-03T11:24:25.053Z,1009.67
2019-05-03T11:25:24.894Z,1009.60
2019-05-03T11:26:25.131Z,1009.71
2019-05-03T11:27:24.716Z,1009.63
2019-05-03T11:28:24.795Z,1009.65
2019-05-03T11:29:24.697Z,1009.66
2019-05-03T11:30:24.650Z,1009.67
2019-05-03T11:31:24.747Z,1009.68
2019-05-03T11:32:22.750Z,1009.61
2019-05-03T11:33:24.677Z,1009.63
2019-05-03T11:35:24.597Z,1009.64
2019-05-03T11:36:22.571Z,1009.60
2019-05-03T11:37:22.530Z,1009.62
2019-05-03T11:38:22.581Z,1009.62
2019-05-03T11:39:22.449Z,1009.52
2019-05-03T11:40:22.416Z,1009.54
2019-05-03T11:41:30.340Z,1009.48
2019-05-03T11:42:22.309Z,1009.49
2019-05-03T11:43:22.268Z,1009.51
2019-05-03T11:44:22.222Z,1009.51
2019-05-03T11:45:22.178Z,1009.45
2019-05-03T11:46:22.148Z,1009.49
2019-05-03T11:47:24.983Z,1009.50
2019-05-03T11:48:22.049Z,1009.49
2019-05-03T11:49:22.007Z,1009.49
2019-05-03T11:50:21.964Z,1009.46
2019-05-03T11:51:21.921Z,1009.45
2019-05-03T11:52:21.877Z,1009.49
2019-05-03T11:53:21.834Z,1009.43
2019-05-03T11:54:21.800Z,1009.44
2019-05-03T11:55:21.847Z,1009.43
2019-05-03T11:56:22.399Z,1009.47
2019-05-03T11:57:21.666Z,1009.46
2019-05-03T11:58:21.644Z,1009.44
2019-05-03T11:59:21.622Z,1009.41
2019-05-03T12:00:21.541Z,1009.40
2019-05-03T12:01:21.498Z,1009.42
2019-05-03T12:02:21.456Z,1009.40
2019-05-03T12:03:21.415Z,1009.41
2019-05-03T12:04:21.372Z,1009.37
2019-05-03T12:05:21.330Z,1009.39
2019-05-03T12:06:21.290Z,1009.39
2019-05-03T12:07:21.250Z,1009.42
2019-05-03T12:08:21.206Z,1009.43
2019-05-03T12:09:21.163Z,1009.44
2019-05-03T12:10:36.512Z,1009.49
2019-05-03T12:11:21.083Z,1009.43